Speedway, Indiana
Current Conditions -  °F | °C
As of 6:53 AM on Thursday 29 Jan 2015 (Local Time) from KEYE Reporting Station
Clear Clear  
Wind Chill: 32°   Ceiling: Unl
Heat Index: 37°   Visibility: 10mi
Dew Point: 27°   Wind: 6mph
Humidity: 67%   Direction: 160°SSE
Pressure: 29.77"   Gusts: NA
Location:  39.79°N, 86.25°W
Report Text: KEYE 291153Z AUTO 16005KT 10SM CLR 03/M03 A2977 RMK AO2 SLP087 60000 T00281028 10028 20006 56031 $
Loading
Personal Weather Stations






























Interactive Weather Map New forecast layout! Learn more

10-Day Weather Forecast

Advertisements
Track Severe Weather on mobile